Cooks, MI (49817)

05:21 AM EDT del 23 Ottobre 2014 (GMT -0400)
Garden Corners, Michigan | Change Station
CLOSE
Current Station
Stazione meteo personale
Location: Garden Corners, MI
Altitudine: 587 ft
Stazioni meteo nelle vicinanze

Alt. 587 ft 45.90 °N, 86.55 °W | Updated 6 seconds ago

Parzialmente nuvoloso
Parzialmente nuvoloso
30.1 °F
Sembra 20 °F
N
12.0
Vento Variabile Vento da Sud
Gusts 12.0 mph

Oggi
Massima -- | Minima -- °F
--% Possibilità di precip.
Ieri
Massima -- | Minima -- °F
Precip. -- in
8:13 AM 6:46 PM
Luna calante, 0% visible
Pressione 30.19 in
Visibilità 10.0 miglia
Nuvole Sereno
Raffreddamento del vento 20 °F
Punto di rugiada 29 °F
Umidità 97%
Piovosità 0.00 in
Spessore del manto nevoso Non disponibile.
Raggi UV 0 fuori da 12
Polline .30 fuori da 12
PM2.5 Buono
Flu Activity Sporadic
METAR KISQ 230912Z AUTO 20009KT 10SM CLR 07/04 A3019 RMK AO2 T00690041

More Conditions Fewer Conditions

Pressione 30.19 in
Visibilità 10.0 miglia
Nuvole Sereno
Raffreddamento del vento 20 °F
Punto di rugiada 29 °F
Umidità 97%
Piovosità 0.00 in
Spessore del manto nevoso Non disponibile.
Raggi UV 0 fuori da 12
Polline .30 fuori da 12
PM2.5 Buono
Flu Activity Sporadic
METAR KISQ 230912Z AUTO 20009KT 10SM CLR 07/04 A3019 RMK AO2 T00690041

More Conditions Fewer Conditions

10-Day Weather Forecast

Almanac

Astronomia

Oct. 23, 2014 Alba Tramonto
Ora attuale 08:13 EDT 18:46 EDT
Crepuscolo civile 07:43 EDT 19:16 EDT
Crepuscolo nautico 07:08 EDT 19:51 EDT
Crepuscolo astronomico 06:33 EDT 20:26 EDT
Luna 07:51 EDT 18:47 EDT
Estensione della luce visibile 11h 33m
Lunghezza del giorno
10h 32m
Tomorrow will be 3m 2s shorter.
Luna calante, 0% of the Moon is Illuminated
Oggi
Luna calante
Ott 23
Nuovo
Ott 30
Primo quarto
Nov 6
Luna piena
Nov 14
Ultimo quarto

Gli estremi di oggi

State Highs State Lows

Community

WunderPhotos

Upload Photos

1,764,199 foto caricate!

Nearby

Qualità dell'aria

  Qualità dell'aria Indice AQ Inquinante
Ieri Buono
PM2.5
Attuale Buono
PM2.5
Giovedì Buono
PM2.5
Venerdì Buono
PM2.5
Sabato Buono
PM2.5
Domenica Buono
PM2.5
Lunedì Buono
PM2.5

Profondità neve

Stazione Profondità Altitudine
Non sono state evidenziate nuove nevicate

Attività sismica

Città  Distanza Mag. Data & Ora
Non sono state riportate attività sismiche nelle vicinanze.
Minimo Magnitudo Mostrato è 2.5.

Temperature delle acque costiere

Località Temperatura
Menominee, MI 51.1 °F
Port Inland, MI 51.1 °F

Stazioni meteo nelle vicinanze